This is the latest recevied weather packets stored in our database for station/object KC9VAF. If no packets are shown the sender has not sent any weather packets the latest 10 day(s).
| Time | Temp. | Humidity | Pressure | Rain* | Wind** | Luminosity | Snow |
|---|---|---|---|---|---|---|---|
| 1778276384 | 17.78° C | 32% | 1006.6 hPa | 0 mm | - | 442 W/m² | - |
| 1778276082 | 18.33° C | 33% | 1006.4 hPa | 0 mm | - | 448 W/m² | - |
| 1778275777 | 18.89° C | 33% | 1006.5 hPa | 0 mm | - | 462 W/m² | - |
| 1778275474 | 18.89° C | 31% | 1006.8 hPa | 0 mm | - | 468 W/m² | - |
| 1778275170 | 18.89° C | 36% | 1006.6 hPa | 0 mm | - | 479 W/m² | - |
| 1778274866 | 18.89° C | 33% | 1007 hPa | 0 mm | - | 502 W/m² | - |
| 1778274563 | 18.89° C | 33% | 1006.7 hPa | 0 mm | - | 482 W/m² | - |
| 1778274260 | 18.89° C | 32% | 1006.8 hPa | 0 mm | - | 539 W/m² | - |
| 1778273956 | 20° C | 33% | 1007.2 hPa | 0 mm | - | 564 W/m² | - |
| 1778273653 | 18.89° C | 32% | 1007.2 hPa | 0 mm | - | 556 W/m² | - |
| 1778273349 | 18.89° C | 34% | 1007.3 hPa | 0 mm | - | 566 W/m² | - |
| 1778273047 | 19.44° C | 35% | 1007.3 hPa | 0 mm | - | 571 W/m² | - |
| 1778272742 | 19.44° C | 33% | 1007.3 hPa | 0 mm | - | 563 W/m² | - |
| 1778272438 | 19.44° C | 32% | 1007.6 hPa | 0 mm | - | 572 W/m² | - |
| 1778272134 | 19.44° C | 26% | 1007.6 hPa | 0 mm | - | 596 W/m² | - |
| 1778271832 | 18.89° C | 32% | 1007.3 hPa | 0 mm | - | 564 W/m² | - |
| 1778271529 | 19.44° C | 33% | 1007.7 hPa | 0 mm | - | 592 W/m² | - |
| 1778271226 | 18.89° C | 34% | 1007.7 hPa | 0 mm | - | 618 W/m² | - |
| 1778270922 | 18.89° C | 35% | 1007.7 hPa | 0 mm | - | 613 W/m² | - |
| 1778270619 | 19.44° C | 33% | 1008 hPa | 0 mm | - | 630 W/m² | - |
| 1778270314 | 18.89° C | 33% | 1007.8 hPa | 0 mm | - | 624 W/m² | - |
| 1778270011 | 20° C | 28% | 1008 hPa | 0 mm | - | 655 W/m² | - |
| 1778269708 | 19.44° C | 26% | 1008.3 hPa | 0 mm | - | 662 W/m² | - |
| 1778269405 | 19.44° C | 24% | 1008.4 hPa | 0 mm | - | 665 W/m² | - |
| 1778269102 | 19.44° C | 27% | 1008.2 hPa | 0 mm | - | 643 W/m² | - |
* Rain latest hour (hover to see other rain measurements)
** Current wind speed in m/s (hover to see current wind gust speed)